sensor_id;sensor_type;location;lat;lon;timestamp;pressure;altitude;pressure_sealevel;temperature;humidity
49451;BME280;35336;48.400;10.886;2023-09-19T00:00:07;95936.84;;;15.63;88.47
49451;BME280;35336;48.400;10.886;2023-09-19T00:00:22;95923.19;;;15.53;88.36
49451;BME280;35336;48.400;10.886;2023-09-19T00:00:40;95943.81;;;15.64;88.30
49451;BME280;35336;48.400;10.886;2023-09-19T00:01:01;95939.53;;;15.63;88.29
49451;BME280;35336;48.400;10.886;2023-09-19T00:01:18;95940.44;;;15.57;88.32
49451;BME280;35336;48.400;10.886;2023-09-19T00:01:36;95943.59;;;15.66;88.34
49451;BME280;35336;48.400;10.886;2023-09-19T00:01:53;95937.66;;;15.64;88.22
49451;BME280;35336;48.400;10.886;2023-09-19T00:02:11;95937.56;;;15.59;88.04
49451;BME280;35336;48.400;10.886;2023-09-19T00:02:27;95941.88;;;15.60;88.04
49451;BME280;35336;48.400;10.886;2023-09-19T00:02:42;95944.31;;;15.61;87.77
49451;BME280;35336;48.400;10.886;2023-09-19T00:02:58;95937.66;;;15.64;87.91
49451;BME280;35336;48.400;10.886;2023-09-19T00:03:16;95942.44;;;15.62;87.98
49451;BME280;35336;48.400;10.886;2023-09-19T00:03:34;95951.09;;;15.64;88.21
49451;BME280;35336;48.400;10.886;2023-09-19T00:03:50;95951.41;;;15.67;87.75
49451;BME280;35336;48.400;10.886;2023-09-19T00:04:08;95933.81;;;15.60;87.60
49451;BME280;35336;48.400;10.886;2023-09-19T00:04:23;95940.34;;;15.64;87.75
49451;BME280;35336;48.400;10.886;2023-09-19T00:04:38;95925.63;;;15.54;87.86
49451;BME280;35336;48.400;10.886;2023-09-19T00:04:56;95938.09;;;15.61;87.99
49451;BME280;35336;48.400;10.886;2023-09-19T00:05:13;95931.59;;;15.56;87.86
49451;BME280;35336;48.400;10.886;2023-09-19T00:05:30;95932.41;;;15.57;87.91
49451;BME280;35336;48.400;10.886;2023-09-19T00:05:48;95923.78;;;15.55;88.09
49451;BME280;35336;48.400;10.886;2023-09-19T00:06:06;95943.03;;;15.64;88.05
49451;BME280;35336;48.400;10.886;2023-09-19T00:06:24;95941.03;;;15.59;88.00
49451;BME280;35336;48.400;10.886;2023-09-19T00:06:39;95935.22;;;15.62;88.19
49451;BME280;35336;48.400;10.886;2023-09-19T00:06:57;95946.16;;;15.61;88.25
49451;BME280;35336;48.400;10.886;2023-09-19T00:07:14;95930.78;;;15.56;88.53
49451;BME280;35336;48.400;10.886;2023-09-19T00:07:30;95952.72;;;15.65;88.48
49451;BME280;35336;48.400;10.886;2023-09-19T00:07:45;95933.47;;;15.56;88.27
49451;BME280;35336;48.400;10.886;2023-09-19T00:08:01;95943.72;;;15.59;87.90
49451;BME280;35336;48.400;10.886;2023-09-19T00:08:16;95925.88;;;15.53;87.95
49451;BME280;35336;48.400;10.886;2023-09-19T00:08:34;95947.81;;;15.62;87.85
49451;BME280;35336;48.400;10.886;2023-09-19T00:08:49;95925.28;;;15.51;88.02
49451;BME280;35336;48.400;10.886;2023-09-19T00:09:05;95951.09;;;15.64;88.03
49451;BME280;35336;48.400;10.886;2023-09-19T00:09:20;95950.03;;;15.65;88.07
49451;BME280;35336;48.400;10.886;2023-09-19T00:09:35;95938.59;;;15.57;87.83
49451;BME280;35336;48.400;10.886;2023-09-19T00:09:50;95945.94;;;15.62;87.84
49451;BME280;35336;48.400;10.886;2023-09-19T00:10:06;95932.72;;;15.61;87.58
49451;BME280;35336;48.400;10.886;2023-09-19T00:10:22;95933.31;;;15.63;87.80
49451;BME280;35336;48.400;10.886;2023-09-19T00:10:37;95945.13;;;15.62;87.83
49451;BME280;35336;48.400;10.886;2023-09-19T00:10:53;95940.00;;;15.60;87.80
49451;BME280;35336;48.400;10.886;2023-09-19T00:11:11;95946.28;;;15.66;87.57
49451;BME280;35336;48.400;10.886;2023-09-19T00:11:29;95935.91;;;15.57;87.74
49451;BME280;35336;48.400;10.886;2023-09-19T00:11:49;95924.81;;;15.54;87.75
49451;BME280;35336;48.400;10.886;2023-09-19T00:12:10;95942.44;;;15.62;87.78
49451;BME280;35336;48.400;10.886;2023-09-19T00:12:27;95921.81;;;15.50;88.02
49451;BME280;35336;48.400;10.886;2023-09-19T00:12:43;95942.22;;;15.63;88.02
49451;BME280;35336;48.400;10.886;2023-09-19T00:12:58;95945.47;;;15.65;87.77
49451;BME280;35336;48.400;10.886;2023-09-19T00:13:13;95940.56;;;15.62;88.16
49451;BME280;35336;48.400;10.886;2023-09-19T00:13:29;95942.78;;;15.65;88.02
49451;BME280;35336;48.400;10.886;2023-09-19T00:13:49;95935.31;;;15.55;87.91
49451;BME280;35336;48.400;10.886;2023-09-19T00:14:06;95948.41;;;15.64;87.83
49451;BME280;35336;48.400;10.886;2023-09-19T00:14:25;95945.81;;;15.69;87.98
49451;BME280;35336;48.400;10.886;2023-09-19T00:14:40;95944.16;;;15.68;87.85
49451;BME280;35336;48.400;10.886;2023-09-19T00:15:00;95938.78;;;15.68;87.71
49451;BME280;35336;48.400;10.886;2023-09-19T00:15:15;95939.28;;;15.65;87.66
49451;BME280;35336;48.400;10.886;2023-09-19T00:15:36;95944.50;;;15.71;87.79
49451;BME280;35336;48.400;10.886;2023-09-19T00:15:55;95932.28;;;15.64;87.80
49451;BME280;35336;48.400;10.886;2023-09-19T00:16:11;95946.97;;;15.73;88.03
49451;BME280;35336;48.400;10.886;2023-09-19T00:16:28;95936.84;;;15.63;87.82
49451;BME280;35336;48.400;10.886;2023-09-19T00:16:46;95919.22;;;15.55;87.90
49451;BME280;35336;48.400;10.886;2023-09-19T00:17:02;95939.28;;;15.65;87.80
49451;BME280;35336;48.400;10.886;2023-09-19T00:17:17;95933.56;;;15.61;87.72
49451;BME280;35336;48.400;10.886;2023-09-19T00:17:33;95937.41;;;15.65;87.73
49451;BME280;35336;48.400;10.886;2023-09-19T00:17:51;95936.00;;;15.63;87.57
49451;BME280;35336;48.400;10.886;2023-09-19T00:18:07;95948.28;;;15.70;87.65
49451;BME280;35336;48.400;10.886;2023-09-19T00:18:23;95929.72;;;15.57;87.68
49451;BME280;35336;48.400;10.886;2023-09-19T00:18:41;95921.09;;;15.55;87.79
49451;BME280;35336;48.400;10.886;2023-09-19T00:18:56;95945.47;;;15.65;87.77
49451;BME280;35336;48.400;10.886;2023-09-19T00:19:12;95933.56;;;15.61;87.64
49451;BME280;35336;48.400;10.886;2023-09-19T00:19:29;95941.72;;;15.66;87.98
49451;BME280;35336;48.400;10.886;2023-09-19T00:19:46;95946.50;;;15.64;88.08
49451;BME280;35336;48.400;10.886;2023-09-19T00:20:02;95945.72;;;15.64;88.22
49451;BME280;35336;48.400;10.886;2023-09-19T00:20:17;95940.09;;;15.65;88.09
49451;BME280;35336;48.400;10.886;2023-09-19T00:20:35;95947.94;;;15.67;88.05
49451;BME280;35336;48.400;10.886;2023-09-19T00:20:50;95946.28;;;15.66;88.07
49451;BME280;35336;48.400;10.886;2023-09-19T00:21:06;95944.66;;;15.65;88.34
49451;BME280;35336;48.400;10.886;2023-09-19T00:21:23;95931.00;;;15.54;88.12
49451;BME280;35336;48.400;10.886;2023-09-19T00:21:41;95948.72;;;15.67;88.03
49451;BME280;35336;48.400;10.886;2023-09-19T00:21:58;95934.88;;;15.59;88.15
49451;BME280;35336;48.400;10.886;2023-09-19T00:22:16;95940.91;;;15.66;88.21
49451;BME280;35336;48.400;10.886;2023-09-19T00:22:31;95938.94;;;15.61;88.24
49451;BME280;35336;48.400;10.886;2023-09-19T00:22:51;95937.19;;;15.67;87.97
49451;BME280;35336;48.400;10.886;2023-09-19T00:23:10;95920.50;;;15.53;88.07
49451;BME280;35336;48.400;10.886;2023-09-19T00:23:25;95931.94;;;15.60;88.18
49451;BME280;35336;48.400;10.886;2023-09-19T00:23:40;95936.00;;;15.63;88.17
49451;BME280;35336;48.400;10.886;2023-09-19T00:23:55;95927.34;;;15.61;88.21
49451;BME280;35336;48.400;10.886;2023-09-19T00:24:13;95928.44;;;15.60;88.26
49451;BME280;35336;48.400;10.886;2023-09-19T00:24:28;95940.44;;;15.69;88.10
49451;BME280;35336;48.400;10.886;2023-09-19T00:24:48;95940.91;;;15.66;88.05
49451;BME280;35336;48.400;10.886;2023-09-19T00:25:04;95937.19;;;15.67;88.15
49451;BME280;35336;48.400;10.886;2023-09-19T00:25:20;95941.13;;;15.64;88.27
49451;BME280;35336;48.400;10.886;2023-09-19T00:25:38;95932.28;;;15.64;88.11
49451;BME280;35336;48.400;10.886;2023-09-19T00:25:54;95944.16;;;15.68;87.91
49451;BME280;35336;48.400;10.886;2023-09-19T00:26:13;95928.66;;;15.58;88.02
49451;BME280;35336;48.400;10.886;2023-09-19T00:26:28;95943.81;;;15.64;87.81
49451;BME280;35336;48.400;10.886;2023-09-19T00:26:46;95937.31;;;15.60;87.92
49451;BME280;35336;48.400;10.886;2023-09-19T00:27:01;95935.53;;;15.66;87.88
49451;BME280;35336;48.400;10.886;2023-09-19T00:27:21;95932.28;;;15.64;87.97
49451;BME280;35336;48.400;10.886;2023-09-19T00:27:36;95931.34;;;15.58;87.70
49451;BME280;35336;48.400;10.886;2023-09-19T00:27:51;95941.97;;;15.65;87.79
49451;BME280;35336;48.400;10.886;2023-09-19T00:28:09;95950.63;;;15.67;87.75
49451;BME280;35336;48.400;10.886;2023-09-19T00:28:30;95937.41;;;15.65;87.76
49451;BME280;35336;48.400;10.886;2023-09-19T00:28:45;95957.47;;;15.75;87.92
49451;BME280;35336;48.400;10.886;2023-09-19T00:29:02;95939.28;;;15.65;87.95
49451;BME280;35336;48.400;10.886;2023-09-19T00:29:20;95943.59;;;15.66;87.96
49451;BME280;35336;48.400;10.886;2023-09-19T00:29:38;95952.81;;;15.70;88.04
49451;BME280;35336;48.400;10.886;2023-09-19T00:29:55;95938.59;;;15.57;87.77
49451;BME280;35336;48.400;10.886;2023-09-19T00:30:12;95952.22;;;15.68;87.52
49451;BME280;35336;48.400;10.886;2023-09-19T00:30:27;95944.31;;;15.61;87.55
49451;BME280;35336;48.400;10.886;2023-09-19T00:30:45;95949.34;;;15.57;87.56
49451;BME280;35336;48.400;10.886;2023-09-19T00:31:01;95959.47;;;15.67;87.73
49451;BME280;35336;48.400;10.886;2023-09-19T00:31:16;95938.84;;;15.56;87.96
49451;BME280;35336;48.400;10.886;2023-09-19T00:31:31;95951.00;;;15.59;88.14
49451;BME280;35336;48.400;10.886;2023-09-19T00:31:49;95955.31;;;15.60;88.03
49451;BME280;35336;48.400;10.886;2023-09-19T00:32:09;95955.88;;;15.62;88.13
49451;BME280;35336;48.400;10.886;2023-09-19T00:32:27;95953.56;;;15.53;87.81
49451;BME280;35336;48.400;10.886;2023-09-19T00:32:42;95961.25;;;15.62;88.14
49451;BME280;35336;48.400;10.886;2023-09-19T00:32:58;95953.09;;;15.56;88.24
49451;BME280;35336;48.400;10.886;2023-09-19T00:33:13;95953.69;;;15.59;88.23
49451;BME280;35336;48.400;10.886;2023-09-19T00:33:28;95953.78;;;15.52;88.24
49451;BME280;35336;48.400;10.886;2023-09-19T00:33:44;95938.88;;;15.44;88.25
49451;BME280;35336;48.400;10.886;2023-09-19T00:33:59;95964.88;;;15.55;88.44
49451;BME280;35336;48.400;10.886;2023-09-19T00:34:14;95969.22;;;15.56;88.34
49451;BME280;35336;48.400;10.886;2023-09-19T00:34:30;95960.81;;;15.53;88.52
49451;BME280;35336;48.400;10.886;2023-09-19T00:34:46;95963.59;;;15.58;88.48
49451;BME280;35336;48.400;10.886;2023-09-19T00:35:01;95974.13;;;15.60;88.84
49451;BME280;35336;48.400;10.886;2023-09-19T00:35:16;95956.97;;;15.49;88.63
49451;BME280;35336;48.400;10.886;2023-09-19T00:35:31;95953.44;;;15.48;88.58
49451;BME280;35336;48.400;10.886;2023-09-19T00:35:53;95951.94;;;15.52;88.75
49451;BME280;35336;48.400;10.886;2023-09-19T00:36:09;95958.91;;;15.53;88.63
49451;BME280;35336;48.400;10.886;2023-09-19T00:36:24;95964.09;;;15.55;88.84
49451;BME280;35336;48.400;10.886;2023-09-19T00:36:41;95967.66;;;15.61;88.70
49451;BME280;35336;48.400;10.886;2023-09-19T00:36:57;95964.88;;;15.55;88.55
49451;BME280;35336;48.400;10.886;2023-09-19T00:37:14;95968.75;;;15.60;88.77
49451;BME280;35336;48.400;10.886;2023-09-19T00:37:30;95979.00;;;15.63;88.79
49451;BME280;35336;48.400;10.886;2023-09-19T00:37:45;95966.06;;;15.60;88.56
49451;BME280;35336;48.400;10.886;2023-09-19T00:38:03;95957.66;;;15.56;88.50
49451;BME280;35336;48.400;10.886;2023-09-19T00:38:21;95973.03;;;15.61;88.42
49451;BME280;35336;48.400;10.886;2023-09-19T00:38:39;95976.31;;;15.63;88.46
49451;BME280;35336;48.400;10.886;2023-09-19T00:38:54;95961.06;;;15.51;88.75
49451;BME280;35336;48.400;10.886;2023-09-19T00:39:09;95971.91;;;15.56;88.74
49451;BME280;35336;48.400;10.886;2023-09-19T00:39:24;95982.41;;;15.58;88.84
49451;BME280;35336;48.400;10.886;2023-09-19T00:39:40;95967.56;;;15.55;88.62
49451;BME280;35336;48.400;10.886;2023-09-19T00:40:00;95971.81;;;15.51;88.45
49451;BME280;35336;48.400;10.886;2023-09-19T00:40:15;95972.16;;;15.55;88.26
49451;BME280;35336;48.400;10.886;2023-09-19T00:40:30;95965.13;;;15.54;88.38
49451;BME280;35336;48.400;10.886;2023-09-19T00:40:46;95972.47;;;15.59;88.44
49451;BME280;35336;48.400;10.886;2023-09-19T00:41:04;95969.31;;;15.62;88.46
49451;BME280;35336;48.400;10.886;2023-09-19T00:41:20;95971.78;;;15.63;88.31
49451;BME280;35336;48.400;10.886;2023-09-19T00:41:37;95972.56;;;15.64;88.17
49451;BME280;35336;48.400;10.886;2023-09-19T00:41:53;95954.28;;;15.49;88.17
49451;BME280;35336;48.400;10.886;2023-09-19T00:42:08;95970.94;;;15.63;88.17
49451;BME280;35336;48.400;10.886;2023-09-19T00:42:25;95975.72;;;15.61;88.05
49451;BME280;35336;48.400;10.886;2023-09-19T00:42:45;95973.53;;;15.57;88.37
49451;BME280;35336;48.400;10.886;2023-09-19T00:43:03;95958.03;;;15.48;88.36
49451;BME280;35336;48.400;10.886;2023-09-19T00:43:18;95974.13;;;15.60;88.53
49451;BME280;35336;48.400;10.886;2023-09-19T00:43:37;95954.16;;;15.44;88.35
49451;BME280;35336;48.400;10.886;2023-09-19T00:43:54;95963.75;;;15.51;88.53
49451;BME280;35336;48.400;10.886;2023-09-19T00:44:09;95964.53;;;15.52;88.75
49451;BME280;35336;48.400;10.886;2023-09-19T00:44:25;95968.06;;;15.52;89.01
49451;BME280;35336;48.400;10.886;2023-09-19T00:44:40;95939.94;;;15.31;88.82
49451;BME280;35336;48.400;10.886;2023-09-19T00:44:58;95972.94;;;15.55;88.86
49451;BME280;35336;48.400;10.886;2023-09-19T00:45:15;95976.69;;;15.54;88.95
49451;BME280;35336;48.400;10.886;2023-09-19T00:45:33;95978.56;;;15.54;88.83
49451;BME280;35336;48.400;10.886;2023-09-19T00:45:52;95971.56;;;15.53;88.84
49451;BME280;35336;48.400;10.886;2023-09-19T00:46:16;95952.75;;;15.41;88.89
49451;BME280;35336;48.400;10.886;2023-09-19T00:46:32;95953.59;;;15.42;88.90
49451;BME280;35336;48.400;10.886;2023-09-19T00:46:47;95964.78;;;15.50;89.09
49451;BME280;35336;48.400;10.886;2023-09-19T00:47:05;95968.06;;;15.52;89.05
49451;BME280;35336;48.400;10.886;2023-09-19T00:47:23;95947.97;;;15.43;89.33
49451;BME280;35336;48.400;10.886;2023-09-19T00:47:42;95955.69;;;15.51;89.36
49451;BME280;35336;48.400;10.886;2023-09-19T00:48:01;95959.75;;;15.54;89.17
49451;BME280;35336;48.400;10.886;2023-09-19T00:48:17;95944.25;;;15.44;89.23
49451;BME280;35336;48.400;10.886;2023-09-19T00:48:40;95966.06;;;15.60;89.11
49451;BME280;35336;48.400;10.886;2023-09-19T00:48:56;95933.88;;;15.36;89.00
49451;BME280;35336;48.400;10.886;2023-09-19T00:49:11;95952.53;;;15.43;88.93
49451;BME280;35336;48.400;10.886;2023-09-19T00:49:29;95962.69;;;15.52;89.04
49451;BME280;35336;48.400;10.886;2023-09-19T00:49:47;95932.56;;;15.38;89.30
49451;BME280;35336;48.400;10.886;2023-09-19T00:50:04;95937.59;;;15.35;89.07
49451;BME280;35336;48.400;10.886;2023-09-19T00:50:24;95958.13;;;15.53;89.32
49451;BME280;35336;48.400;10.886;2023-09-19T00:50:48;95957.53;;;15.51;89.15
49451;BME280;35336;48.400;10.886;2023-09-19T00:51:04;95954.03;;;15.50;88.98
49451;BME280;35336;48.400;10.886;2023-09-19T00:51:20;95961.84;;;15.52;89.06
49451;BME280;35336;48.400;10.886;2023-09-19T00:51:36;95955.34;;;15.48;89.35
49451;BME280;35336;48.400;10.886;2023-09-19T00:51:51;95955.34;;;15.48;89.52
49451;BME280;35336;48.400;10.886;2023-09-19T00:52:07;95948.22;;;15.42;89.48
49451;BME280;35336;48.400;10.886;2023-09-19T00:52:22;95944.47;;;15.43;89.22
49451;BME280;35336;48.400;10.886;2023-09-19T00:52:38;95966.44;;;15.51;89.33
49451;BME280;35336;48.400;10.886;2023-09-19T00:52:54;95960.47;;;15.49;89.25
49451;BME280;35336;48.400;10.886;2023-09-19T00:53:15;95955.56;;;15.46;89.21
49451;BME280;35336;48.400;10.886;2023-09-19T00:53:31;95947.97;;;15.43;89.10
49451;BME280;35336;48.400;10.886;2023-09-19T00:53:46;95952.88;;;15.46;89.20
49451;BME280;35336;48.400;10.886;2023-09-19T00:54:02;95952.31;;;15.44;89.13
49451;BME280;35336;48.400;10.886;2023-09-19T00:54:17;95961.84;;;15.52;89.27
49451;BME280;35336;48.400;10.886;2023-09-19T00:54:33;95959.06;;;15.47;89.20
49451;BME280;35336;48.400;10.886;2023-09-19T00:54:50;95944.13;;;15.39;89.53
49451;BME280;35336;48.400;10.886;2023-09-19T00:55:09;95964.78;;;15.50;89.43
49451;BME280;35336;48.400;10.886;2023-09-19T00:55:27;95963.16;;;15.49;89.42
49451;BME280;35336;48.400;10.886;2023-09-19T00:55:45;95964.78;;;15.50;89.38
49451;BME280;35336;48.400;10.886;2023-09-19T00:56:03;95947.41;;;15.41;89.34
49451;BME280;35336;48.400;10.886;2023-09-19T00:56:19;95966.28;;;15.46;89.19
49451;BME280;35336;48.400;10.886;2023-09-19T00:56:34;95968.78;;;15.48;89.34
49451;BME280;35336;48.400;10.886;2023-09-19T00:56:54;95964.19;;;15.48;89.20
49451;BME280;35336;48.400;10.886;2023-09-19T00:57:09;95978.81;;;15.52;89.48
49451;BME280;35336;48.400;10.886;2023-09-19T00:57:25;95966.28;;;15.46;89.54
49451;BME280;35336;48.400;10.886;2023-09-19T00:57:40;95959.19;;;15.40;89.37
49451;BME280;35336;48.400;10.886;2023-09-19T00:57:58;95973.09;;;15.49;89.79
49451;BME280;35336;48.400;10.886;2023-09-19T00:58:18;95973.91;;;15.49;89.60
49451;BME280;35336;48.400;10.886;2023-09-19T00:58:34;95970.41;;;15.49;89.64
49451;BME280;35336;48.400;10.886;2023-09-19T00:58:50;95981.00;;;15.55;89.57
49451;BME280;35336;48.400;10.886;2023-09-19T00:59:05;95984.19;;;15.52;89.29
49451;BME280;35336;48.400;10.886;2023-09-19T00:59:23;95968.97;;;15.46;88.99
49451;BME280;35336;48.400;10.886;2023-09-19T00:59:41;95981.84;;;15.56;89.23
49451;BME280;35336;48.400;10.886;2023-09-19T00:59:59;95974.25;;;15.53;89.45
49451;BME280;35336;48.400;10.886;2023-09-19T01:00:17;95984.63;;;15.61;89.49
49451;BME280;35336;48.400;10.886;2023-09-19T01:00:35;95978.41;;;15.61;89.53
49451;BME280;35336;48.400;10.886;2023-09-19T01:00:52;96001.34;;;15.63;89.51
49451;BME280;35336;48.400;10.886;2023-09-19T01:01:07;95995.63;;;15.60;89.41
49451;BME280;35336;48.400;10.886;2023-09-19T01:01:25;95991.28;;;15.59;88.94
49451;BME280;35336;48.400;10.886;2023-09-19T01:01:40;95977.84;;;15.59;89.00
49451;BME280;35336;48.400;10.886;2023-09-19T01:01:58;95977.50;;;15.55;88.87
49451;BME280;35336;48.400;10.886;2023-09-19T01:02:15;95967.47;;;15.50;89.09
49451;BME280;35336;48.400;10.886;2023-09-19T01:02:32;95980.31;;;15.60;88.88
49451;BME280;35336;48.400;10.886;2023-09-19T01:02:47;95986.25;;;15.62;89.19
49451;BME280;35336;48.400;10.886;2023-09-19T01:03:03;95974.34;;;15.58;88.93
49451;BME280;35336;48.400;10.886;2023-09-19T01:03:22;95965.94;;;15.54;88.96
49451;BME280;35336;48.400;10.886;2023-09-19T01:03:37;95979.25;;;15.61;89.15
49451;BME280;35336;48.400;10.886;2023-09-19T01:03:53;95978.31;;;15.55;89.08
49451;BME280;35336;48.400;10.886;2023-09-19T01:04:13;95975.97;;;15.59;89.23
49451;BME280;35336;48.400;10.886;2023-09-19T01:04:32;95975.16;;;15.59;89.37
49451;BME280;35336;48.400;10.886;2023-09-19T01:04:49;95966.97;;;15.53;89.33
49451;BME280;35336;48.400;10.886;2023-09-19T01:05:07;95957.78;;;15.49;89.26
49451;BME280;35336;48.400;10.886;2023-09-19T01:05:22;95971.09;;;15.56;89.24
49451;BME280;35336;48.400;10.886;2023-09-19T01:05:40;95967.81;;;15.54;89.37
49451;BME280;35336;48.400;10.886;2023-09-19T01:05:57;95960.47;;;15.49;89.29
49451;BME280;35336;48.400;10.886;2023-09-19T01:06:14;95971.44;;;15.60;89.21
49451;BME280;35336;48.400;10.886;2023-09-19T01:06:30;95976.22;;;15.57;89.28
49451;BME280;35336;48.400;10.886;2023-09-19T01:06:48;95969.44;;;15.55;89.48
49451;BME280;35336;48.400;10.886;2023-09-19T01:07:07;95969.22;;;15.56;89.28
49451;BME280;35336;48.400;10.886;2023-09-19T01:07:22;95969.22;;;15.56;89.15
49451;BME280;35336;48.400;10.886;2023-09-19T01:07:41;95961.41;;;15.55;89.41
49451;BME280;35336;48.400;10.886;2023-09-19T01:07:56;95965.94;;;15.54;89.39
49451;BME280;35336;48.400;10.886;2023-09-19T01:08:16;95960.81;;;15.53;89.44
49451;BME280;35336;48.400;10.886;2023-09-19T01:08:34;95966.97;;;15.53;89.51
49451;BME280;35336;48.400;10.886;2023-09-19T01:08:51;95969.22;;;15.56;89.44
49451;BME280;35336;48.400;10.886;2023-09-19T01:09:09;95970.59;;;15.59;89.24
49451;BME280;35336;48.400;10.886;2023-09-19T01:09:27;95972.47;;;15.59;89.26
49451;BME280;35336;48.400;10.886;2023-09-19T01:09:42;95977.84;;;15.59;89.35
49451;BME280;35336;48.400;10.886;2023-09-19T01:09:58;95970.00;;;15.57;89.21
49451;BME280;35336;48.400;10.886;2023-09-19T01:10:15;95971.31;;;15.54;89.25
49451;BME280;35336;48.400;10.886;2023-09-19T01:10:32;95977.63;;;15.60;89.26
49451;BME280;35336;48.400;10.886;2023-09-19T01:11:20;95959.88;;;15.47;89.23
49451;BME280;35336;48.400;10.886;2023-09-19T01:11:43;95972.81;;;15.62;89.24
49451;BME280;35336;48.400;10.886;2023-09-19T01:12:02;95962.69;;;15.52;89.35
49451;BME280;35336;48.400;10.886;2023-09-19T01:12:28;95972.00;;;15.62;89.46
49451;BME280;35336;48.400;10.886;2023-09-19T01:13:20;95971.66;;;15.58;89.34
49451;BME280;35336;48.400;10.886;2023-09-19T01:13:53;95977.63;;;15.60;89.26
49451;BME280;35336;48.400;10.886;2023-09-19T01:14:44;95979.94;;;15.68;89.29
49451;BME280;35336;48.400;10.886;2023-09-19T01:16:03;95954.03;;;15.50;89.29
49451;BME280;35336;48.400;10.886;2023-09-19T01:16:39;95965.72;;;15.56;89.37
49451;BME280;35336;48.400;10.886;2023-09-19T01:17:04;95971.44;;;15.60;89.34
49451;BME280;35336;48.400;10.886;2023-09-19T01:17:29;95972.81;;;15.62;89.35
49451;BME280;35336;48.400;10.886;2023-09-19T01:20:23;95971.53;;;15.65;89.97
49451;BME280;35336;48.400;10.886;2023-09-19T01:21:35;95981.56;;;15.69;89.49
49451;BME280;35336;48.400;10.886;2023-09-19T01:22:13;95970.94;;;15.63;89.62
49451;BME280;35336;48.400;10.886;2023-09-19T01:23:27;95980.06;;;15.62;89.76
49451;BME280;35336;48.400;10.886;2023-09-19T01:25:05;95971.09;;;15.56;90.09
49451;BME280;35336;48.400;10.886;2023-09-19T01:26:05;95985.09;;;15.58;90.20
49451;BME280;35336;48.400;10.886;2023-09-19T01:28:54;95990.72;;;15.56;90.41
49451;BME280;35336;48.400;10.886;2023-09-19T01:30:07;95984.75;;;15.54;90.48
49451;BME280;35336;48.400;10.886;2023-09-19T01:30:26;95971.22;;;15.49;90.40
49451;BME280;35336;48.400;10.886;2023-09-19T01:30:43;95974.34;;;15.46;90.46
49451;BME280;35336;48.400;10.886;2023-09-19T01:31:02;95977.97;;;15.52;90.37
49451;BME280;35336;48.400;10.886;2023-09-19T01:31:20;95981.25;;;15.54;90.59
49451;BME280;35336;48.400;10.886;2023-09-19T01:31:37;95985.34;;;15.56;90.59
49451;BME280;35336;48.400;10.886;2023-09-19T01:31:53;95985.22;;;15.51;90.58
49451;BME280;35336;48.400;10.886;2023-09-19T01:32:10;95970.97;;;15.51;90.64
49451;BME280;35336;48.400;10.886;2023-09-19T01:32:29;95972.75;;;15.45;90.64
49451;BME280;35336;48.400;10.886;2023-09-19T01:32:45;95987.66;;;15.53;90.62
49451;BME280;35336;48.400;10.886;2023-09-19T01:33:00;95976.34;;;15.51;90.68
49451;BME280;35336;48.400;10.886;2023-09-19T01:33:22;95964.09;;;15.43;90.62
49451;BME280;35336;48.400;10.886;2023-09-19T01:34:11;95988.25;;;15.55;90.66
49451;BME280;35336;48.400;10.886;2023-09-19T01:34:28;95959.69;;;15.37;90.74
49451;BME280;35336;48.400;10.886;2023-09-19T01:34:57;95961.31;;;15.38;90.81
49451;BME280;35336;48.400;10.886;2023-09-19T01:35:13;95973.66;;;15.39;90.87
49451;BME280;35336;48.400;10.886;2023-09-19T01:35:28;95979.50;;;15.48;90.97
49451;BME280;35336;48.400;10.886;2023-09-19T01:35:46;95969.13;;;15.39;90.98
49451;BME280;35336;48.400;10.886;2023-09-19T01:36:01;95988.97;;;15.50;90.91
49451;BME280;35336;48.400;10.886;2023-09-19T01:36:16;95983.59;;;15.50;91.02
49451;BME280;35336;48.400;10.886;2023-09-19T01:36:33;95986.63;;;15.54;91.07
49451;BME280;35336;48.400;10.886;2023-09-19T01:36:49;95982.66;;;15.45;91.10
49451;BME280;35336;48.400;10.886;2023-09-19T01:37:04;95983.00;;;15.48;91.05
49451;BME280;35336;48.400;10.886;2023-09-19T01:37:21;95971.31;;;15.43;91.05
49451;BME280;35336;48.400;10.886;2023-09-19T01:37:36;95982.91;;;15.43;91.18
49451;BME280;35336;48.400;10.886;2023-09-19T01:37:51;95978.13;;;15.45;90.90
49451;BME280;35336;48.400;10.886;2023-09-19T01:38:07;95975.09;;;15.42;91.19
49451;BME280;35336;48.400;10.886;2023-09-19T01:38:25;95981.38;;;15.47;91.08
49451;BME280;35336;48.400;10.886;2023-09-19T01:38:40;95971.56;;;15.41;91.14
49451;BME280;35336;48.400;10.886;2023-09-19T01:38:57;95987.09;;;15.51;91.29
49451;BME280;35336;48.400;10.886;2023-09-19T01:39:14;95981.03;;;15.44;91.38
49451;BME280;35336;48.400;10.886;2023-09-19T01:39:29;95983.50;;;15.45;91.33
49451;BME280;35336;48.400;10.886;2023-09-19T01:39:48;95973.66;;;15.39;91.37
49451;BME280;35336;48.400;10.886;2023-09-19T01:40:07;95978.13;;;15.45;91.27
49451;BME280;35336;48.400;10.886;2023-09-19T01:40:26;95982.41;;;15.46;91.33
49451;BME280;35336;48.400;10.886;2023-09-19T01:40:42;95992.13;;;15.47;91.32
49451;BME280;35336;48.400;10.886;2023-09-19T01:41:04;95981.84;;;15.44;91.28
49451;BME280;35336;48.400;10.886;2023-09-19T01:43:33;95963.06;;;15.32;91.55
49451;BME280;35336;48.400;10.886;2023-09-19T01:43:52;95994.59;;;15.49;91.59
49451;BME280;35336;48.400;10.886;2023-09-19T01:44:17;95986.97;;;15.46;91.70
49451;BME280;35336;48.400;10.886;2023-09-19T01:45:08;95965.50;;;15.34;91.65
49451;BME280;35336;48.400;10.886;2023-09-19T01:45:55;95986.19;;;15.45;91.55
49451;BME280;35336;48.400;10.886;2023-09-19T01:46:14;95990.25;;;15.48;91.86
49451;BME280;35336;48.400;10.886;2023-09-19T01:46:34;95977.09;;;15.34;91.67
49451;BME280;35336;48.400;10.886;2023-09-19T01:46:51;95990.25;;;15.48;91.82